sensor_id;sensor_type;location;lat;lon;timestamp;pressure;altitude;pressure_sealevel;temperature;humidity
17521;BME280;8878;-33.370;-70.552;2024-01-16T00:01:21;91924.31;;;22.77;28.95
17521;BME280;8878;-33.370;-70.552;2024-01-16T00:03:50;91932.13;;;22.82;28.95
17521;BME280;8878;-33.370;-70.552;2024-01-16T00:06:20;91921.69;;;22.64;29.53
17521;BME280;8878;-33.370;-70.552;2024-01-16T00:08:49;91930.97;;;22.39;30.19
17521;BME280;8878;-33.370;-70.552;2024-01-16T00:11:19;91924.78;;;22.51;30.34
17521;BME280;8878;-33.370;-70.552;2024-01-16T00:13:48;91937.63;;;22.57;30.41
17521;BME280;8878;-33.370;-70.552;2024-01-16T00:16:19;91937.31;;;22.47;30.89
17521;BME280;8878;-33.370;-70.552;2024-01-16T00:18:49;91937.13;;;22.40;31.56
17521;BME280;8878;-33.370;-70.552;2024-01-16T00:21:18;91937.13;;;22.12;32.17
17521;BME280;8878;-33.370;-70.552;2024-01-16T00:23:49;91943.09;;;22.05;32.01
17521;BME280;8878;-33.370;-70.552;2024-01-16T00:26:22;91944.94;;;22.17;32.17
17521;BME280;8878;-33.370;-70.552;2024-01-16T00:28:51;91948.97;;;22.23;32.64
17521;BME280;8878;-33.370;-70.552;2024-01-16T00:31:22;91937.84;;;22.09;32.75
17521;BME280;8878;-33.370;-70.552;2024-01-16T00:33:51;91945.66;;;21.89;32.78
17521;BME280;8878;-33.370;-70.552;2024-01-16T00:36:21;91939.09;;;21.75;32.98
17521;BME280;8878;-33.370;-70.552;2024-01-16T00:38:50;91949.53;;;21.64;32.99
17521;BME280;8878;-33.370;-70.552;2024-01-16T00:41:20;91956.13;;;21.55;32.95
17521;BME280;8878;-33.370;-70.552;2024-01-16T00:43:49;91951.78;;;21.50;33.42
17521;BME280;8878;-33.370;-70.552;2024-01-16T00:46:22;91956.38;;;21.49;32.94
17521;BME280;8878;-33.370;-70.552;2024-01-16T00:48:52;91955.38;;;21.30;32.79
17521;BME280;8878;-33.370;-70.552;2024-01-16T00:51:21;91964.50;;;21.04;32.90
17521;BME280;8878;-33.370;-70.552;2024-01-16T00:53:50;91957.69;;;20.95;31.96
17521;BME280;8878;-33.370;-70.552;2024-01-16T00:56:20;91963.47;;;20.85;32.09
17521;BME280;8878;-33.370;-70.552;2024-01-16T00:58:49;91967.81;;;20.89;32.82
17521;BME280;8878;-33.370;-70.552;2024-01-16T01:01:19;91965.91;;;20.78;32.38
17521;BME280;8878;-33.370;-70.552;2024-01-16T01:03:50;91967.75;;;20.53;32.44
17521;BME280;8878;-33.370;-70.552;2024-01-16T01:06:20;91981.03;;;20.49;33.58
17521;BME280;8878;-33.370;-70.552;2024-01-16T01:08:49;91975.75;;;20.20;31.51
17521;BME280;8878;-33.370;-70.552;2024-01-16T01:11:19;91984.19;;;20.10;31.04
17521;BME280;8878;-33.370;-70.552;2024-01-16T01:13:49;91983.72;;;20.08;32.13
17521;BME280;8878;-33.370;-70.552;2024-01-16T01:16:19;91987.44;;;20.15;32.38
17521;BME280;8878;-33.370;-70.552;2024-01-16T01:18:50;91979.28;;;20.12;31.52
17521;BME280;8878;-33.370;-70.552;2024-01-16T01:21:19;91990.34;;;20.10;29.64
17521;BME280;8878;-33.370;-70.552;2024-01-16T01:23:49;91985.09;;;20.14;28.17
17521;BME280;8878;-33.370;-70.552;2024-01-16T01:26:18;91990.38;;;20.22;28.22
17521;BME280;8878;-33.370;-70.552;2024-01-16T01:28:48;91986.53;;;20.11;28.73
17521;BME280;8878;-33.370;-70.552;2024-01-16T01:31:17;91997.09;;;19.66;28.50
17521;BME280;8878;-33.370;-70.552;2024-01-16T01:33:46;91989.31;;;19.44;28.78
17521;BME280;8878;-33.370;-70.552;2024-01-16T01:36:18;91997.88;;;19.37;28.30
17521;BME280;8878;-33.370;-70.552;2024-01-16T01:38:47;91994.53;;;19.40;28.40
17521;BME280;8878;-33.370;-70.552;2024-01-16T01:41:17;91997.53;;;19.39;27.67
17521;BME280;8878;-33.370;-70.552;2024-01-16T01:43:46;92001.44;;;19.50;26.94
17521;BME280;8878;-33.370;-70.552;2024-01-16T01:46:18;92000.41;;;19.63;27.63
17521;BME280;8878;-33.370;-70.552;2024-01-16T01:48:48;92003.78;;;19.81;27.68
17521;BME280;8878;-33.370;-70.552;2024-01-16T01:51:20;92007.31;;;19.93;27.70
17521;BME280;8878;-33.370;-70.552;2024-01-16T01:53:50;92007.16;;;19.90;28.88
17521;BME280;8878;-33.370;-70.552;2024-01-16T01:56:21;92010.03;;;19.85;29.21
17521;BME280;8878;-33.370;-70.552;2024-01-16T01:58:54;92017.22;;;19.93;28.82
17521;BME280;8878;-33.370;-70.552;2024-01-16T02:01:26;92018.47;;;19.96;29.50
17521;BME280;8878;-33.370;-70.552;2024-01-16T02:03:56;92025.56;;;19.91;29.38
17521;BME280;8878;-33.370;-70.552;2024-01-16T02:06:28;92035.91;;;19.81;29.32
17521;BME280;8878;-33.370;-70.552;2024-01-16T02:08:58;92037.53;;;19.73;29.10
17521;BME280;8878;-33.370;-70.552;2024-01-16T02:11:28;92040.97;;;19.36;29.37
17521;BME280;8878;-33.370;-70.552;2024-01-16T02:13:57;92040.84;;;19.32;29.11
17521;BME280;8878;-33.370;-70.552;2024-01-16T02:16:34;92038.91;;;19.03;29.22
17521;BME280;8878;-33.370;-70.552;2024-01-16T02:19:04;92048.25;;;18.71;28.60
17521;BME280;8878;-33.370;-70.552;2024-01-16T02:21:38;92048.25;;;18.54;29.24
17521;BME280;8878;-33.370;-70.552;2024-01-16T02:24:11;92054.72;;;18.53;28.99
17521;BME280;8878;-33.370;-70.552;2024-01-16T02:26:40;92051.25;;;18.35;28.93
17521;BME280;8878;-33.370;-70.552;2024-01-16T02:29:10;92056.94;;;18.25;29.09
17521;BME280;8878;-33.370;-70.552;2024-01-16T02:31:39;92063.97;;;18.13;29.34
17521;BME280;8878;-33.370;-70.552;2024-01-16T02:34:10;92059.41;;;18.05;28.79
17521;BME280;8878;-33.370;-70.552;2024-01-16T02:36:40;92058.31;;;18.14;29.06
17521;BME280;8878;-33.370;-70.552;2024-01-16T02:39:11;92063.81;;;18.00;29.10
17521;BME280;8878;-33.370;-70.552;2024-01-16T02:41:41;92066.16;;;17.93;29.21
17521;BME280;8878;-33.370;-70.552;2024-01-16T02:44:11;92061.09;;;17.83;29.45
17521;BME280;8878;-33.370;-70.552;2024-01-16T02:46:41;92063.03;;;18.09;30.26
17521;BME280;8878;-33.370;-70.552;2024-01-16T02:49:10;92056.91;;;18.17;31.15
17521;BME280;8878;-33.370;-70.552;2024-01-16T02:51:40;92050.78;;;18.33;29.99
17521;BME280;8878;-33.370;-70.552;2024-01-16T02:54:11;92049.84;;;18.38;29.64
17521;BME280;8878;-33.370;-70.552;2024-01-16T02:56:41;92048.44;;;18.32;29.89
17521;BME280;8878;-33.370;-70.552;2024-01-16T02:59:10;92048.28;;;18.37;32.45
17521;BME280;8878;-33.370;-70.552;2024-01-16T03:01:39;92045.75;;;18.49;32.28
17521;BME280;8878;-33.370;-70.552;2024-01-16T03:04:09;92043.38;;;18.48;33.64
17521;BME280;8878;-33.370;-70.552;2024-01-16T03:06:39;92045.59;;;18.46;33.59
17521;BME280;8878;-33.370;-70.552;2024-01-16T03:09:10;92040.56;;;18.44;34.47
17521;BME280;8878;-33.370;-70.552;2024-01-16T03:11:40;92040.72;;;18.39;34.99
17521;BME280;8878;-33.370;-70.552;2024-01-16T03:14:09;92038.69;;;18.36;35.20
17521;BME280;8878;-33.370;-70.552;2024-01-16T03:16:39;92042.13;;;18.19;35.79
17521;BME280;8878;-33.370;-70.552;2024-01-16T03:19:08;92033.66;;;18.09;36.05
17521;BME280;8878;-33.370;-70.552;2024-01-16T03:21:38;92042.16;;;18.11;36.21
17521;BME280;8878;-33.370;-70.552;2024-01-16T03:24:08;92029.72;;;17.97;36.72
17521;BME280;8878;-33.370;-70.552;2024-01-16T03:26:39;92032.03;;;17.65;37.40
17521;BME280;8878;-33.370;-70.552;2024-01-16T03:29:09;92028.72;;;17.59;40.01
17521;BME280;8878;-33.370;-70.552;2024-01-16T03:31:40;92027.13;;;17.58;40.47
17521;BME280;8878;-33.370;-70.552;2024-01-16T03:34:10;92022.78;;;17.62;38.96
17521;BME280;8878;-33.370;-70.552;2024-01-16T03:36:39;92026.22;;;17.63;40.21
17521;BME280;8878;-33.370;-70.552;2024-01-16T03:39:09;92023.38;;;17.59;38.63
17521;BME280;8878;-33.370;-70.552;2024-01-16T03:41:40;92026.19;;;17.54;38.56
17521;BME280;8878;-33.370;-70.552;2024-01-16T03:44:10;92013.97;;;17.53;38.76
17521;BME280;8878;-33.370;-70.552;2024-01-16T03:46:39;92019.28;;;17.53;39.95
17521;BME280;8878;-33.370;-70.552;2024-01-16T03:49:10;92007.19;;;17.47;41.00
17521;BME280;8878;-33.370;-70.552;2024-01-16T03:51:39;92005.13;;;17.35;41.16
17521;BME280;8878;-33.370;-70.552;2024-01-16T03:54:09;92004.44;;;17.21;40.49
17521;BME280;8878;-33.370;-70.552;2024-01-16T03:56:41;92002.09;;;17.19;42.17
17521;BME280;8878;-33.370;-70.552;2024-01-16T03:59:10;91995.22;;;17.18;41.69
17521;BME280;8878;-33.370;-70.552;2024-01-16T04:01:40;92001.94;;;17.16;44.06
17521;BME280;8878;-33.370;-70.552;2024-01-16T04:04:11;91998.78;;;17.14;43.07
17521;BME280;8878;-33.370;-70.552;2024-01-16T04:06:40;91989.22;;;17.04;39.69
17521;BME280;8878;-33.370;-70.552;2024-01-16T04:09:10;91986.81;;;16.94;39.72
17521;BME280;8878;-33.370;-70.552;2024-01-16T04:11:42;91990.97;;;16.78;39.11
17521;BME280;8878;-33.370;-70.552;2024-01-16T04:14:11;91994.84;;;16.72;38.72
17521;BME280;8878;-33.370;-70.552;2024-01-16T04:16:41;91980.78;;;16.80;37.86
17521;BME280;8878;-33.370;-70.552;2024-01-16T04:19:10;91985.97;;;16.76;37.75
17521;BME280;8878;-33.370;-70.552;2024-01-16T04:21:40;91982.19;;;16.77;36.75
17521;BME280;8878;-33.370;-70.552;2024-01-16T04:24:09;91980.03;;;16.57;36.97
17521;BME280;8878;-33.370;-70.552;2024-01-16T04:26:38;91989.03;;;16.61;36.34
17521;BME280;8878;-33.370;-70.552;2024-01-16T04:29:10;91988.81;;;16.58;35.83
17521;BME280;8878;-33.370;-70.552;2024-01-16T04:31:41;91985.44;;;16.66;36.97
17521;BME280;8878;-33.370;-70.552;2024-01-16T04:34:10;91982.03;;;16.74;37.03
17521;BME280;8878;-33.370;-70.552;2024-01-16T04:36:40;91981.41;;;16.77;37.05
17521;BME280;8878;-33.370;-70.552;2024-01-16T04:39:09;91988.13;;;16.74;33.76
17521;BME280;8878;-33.370;-70.552;2024-01-16T04:41:38;91983.47;;;16.80;35.39
17521;BME280;8878;-33.370;-70.552;2024-01-16T04:44:10;91985.72;;;16.95;36.39
17521;BME280;8878;-33.370;-70.552;2024-01-16T04:46:39;91994.66;;;16.91;36.79
17521;BME280;8878;-33.370;-70.552;2024-01-16T04:49:09;91994.91;;;16.80;40.07
17521;BME280;8878;-33.370;-70.552;2024-01-16T04:51:38;91996.63;;;16.76;39.90
17521;BME280;8878;-33.370;-70.552;2024-01-16T04:54:08;91985.53;;;16.83;39.92
17521;BME280;8878;-33.370;-70.552;2024-01-16T04:56:37;91995.06;;;16.84;41.49
17521;BME280;8878;-33.370;-70.552;2024-01-16T04:59:07;91983.91;;;16.73;41.71
17521;BME280;8878;-33.370;-70.552;2024-01-16T05:01:38;91991.91;;;16.73;43.96
17521;BME280;8878;-33.370;-70.552;2024-01-16T05:04:07;91986.38;;;16.70;43.40
17521;BME280;8878;-33.370;-70.552;2024-01-16T05:06:37;91979.16;;;16.62;44.75
17521;BME280;8878;-33.370;-70.552;2024-01-16T05:09:06;91976.38;;;16.44;44.11
17521;BME280;8878;-33.370;-70.552;2024-01-16T05:11:36;91971.25;;;16.26;43.84
17521;BME280;8878;-33.370;-70.552;2024-01-16T05:14:06;91954.66;;;16.06;44.39
17521;BME280;8878;-33.370;-70.552;2024-01-16T05:16:35;91957.75;;;16.22;45.25
17521;BME280;8878;-33.370;-70.552;2024-01-16T05:19:06;91944.88;;;16.16;46.07
17521;BME280;8878;-33.370;-70.552;2024-01-16T05:21:35;91942.56;;;16.23;47.64
17521;BME280;8878;-33.370;-70.552;2024-01-16T05:24:05;91934.16;;;16.29;47.22
17521;BME280;8878;-33.370;-70.552;2024-01-16T05:26:35;91925.91;;;16.09;44.87
17521;BME280;8878;-33.370;-70.552;2024-01-16T05:29:04;91923.31;;;15.95;43.79
17521;BME280;8878;-33.370;-70.552;2024-01-16T05:31:33;91924.38;;;15.94;43.80
17521;BME280;8878;-33.370;-70.552;2024-01-16T05:34:10;91925.13;;;15.86;43.44
17521;BME280;8878;-33.370;-70.552;2024-01-16T05:36:39;91919.00;;;15.85;43.56
17521;BME280;8878;-33.370;-70.552;2024-01-16T05:39:09;91920.16;;;15.93;42.92
17521;BME280;8878;-33.370;-70.552;2024-01-16T05:41:38;91915.50;;;15.98;40.81
17521;BME280;8878;-33.370;-70.552;2024-01-16T05:44:08;91924.97;;;16.13;40.59
17521;BME280;8878;-33.370;-70.552;2024-01-16T05:46:37;91922.56;;;16.25;40.63
17521;BME280;8878;-33.370;-70.552;2024-01-16T05:49:08;91932.72;;;16.23;40.67
17521;BME280;8878;-33.370;-70.552;2024-01-16T05:51:39;91939.47;;;16.29;41.71
17521;BME280;8878;-33.370;-70.552;2024-01-16T05:54:08;91948.00;;;16.40;42.11
17521;BME280;8878;-33.370;-70.552;2024-01-16T05:56:37;91946.38;;;16.30;42.47
17521;BME280;8878;-33.370;-70.552;2024-01-16T05:59:07;91940.03;;;16.18;45.09
17521;BME280;8878;-33.370;-70.552;2024-01-16T06:01:37;91934.53;;;15.92;46.31
17521;BME280;8878;-33.370;-70.552;2024-01-16T06:04:08;91934.53;;;16.14;46.47
17521;BME280;8878;-33.370;-70.552;2024-01-16T06:06:37;91937.25;;;16.23;46.53
17521;BME280;8878;-33.370;-70.552;2024-01-16T06:09:10;91928.03;;;16.29;46.96
17521;BME280;8878;-33.370;-70.552;2024-01-16T06:11:41;91918.03;;;16.34;48.67
17521;BME280;8878;-33.370;-70.552;2024-01-16T06:14:10;91924.28;;;16.30;50.21
17521;BME280;8878;-33.370;-70.552;2024-01-16T06:16:40;91930.25;;;16.27;50.13
17521;BME280;8878;-33.370;-70.552;2024-01-16T06:19:26;91925.59;;;16.10;49.85
17521;BME280;8878;-33.370;-70.552;2024-01-16T06:21:56;91916.59;;;15.75;51.34
17521;BME280;8878;-33.370;-70.552;2024-01-16T06:24:27;91913.16;;;15.75;52.01
17521;BME280;8878;-33.370;-70.552;2024-01-16T06:26:57;91916.59;;;15.75;52.19
17521;BME280;8878;-33.370;-70.552;2024-01-16T06:29:26;91914.13;;;15.79;53.49
17521;BME280;8878;-33.370;-70.552;2024-01-16T06:31:55;91918.53;;;15.83;54.47
17521;BME280;8878;-33.370;-70.552;2024-01-16T06:34:27;91914.59;;;15.81;53.49
17521;BME280;8878;-33.370;-70.552;2024-01-16T06:36:56;91927.59;;;15.82;54.85
17521;BME280;8878;-33.370;-70.552;2024-01-16T06:39:26;91925.47;;;15.71;56.14
17521;BME280;8878;-33.370;-70.552;2024-01-16T06:41:55;91933.56;;;15.65;57.21
17521;BME280;8878;-33.370;-70.552;2024-01-16T06:44:25;91936.66;;;15.59;57.89
17521;BME280;8878;-33.370;-70.552;2024-01-16T06:46:54;91930.66;;;15.53;56.69
17521;BME280;8878;-33.370;-70.552;2024-01-16T06:49:26;91928.50;;;15.55;56.71
17521;BME280;8878;-33.370;-70.552;2024-01-16T06:51:56;91931.16;;;15.55;55.75
17521;BME280;8878;-33.370;-70.552;2024-01-16T06:54:26;91933.22;;;15.58;55.75
17521;BME280;8878;-33.370;-70.552;2024-01-16T06:56:55;91928.09;;;15.48;56.44
17521;BME280;8878;-33.370;-70.552;2024-01-16T06:59:25;91925.63;;;15.52;55.72
17521;BME280;8878;-33.370;-70.552;2024-01-16T07:01:54;91925.25;;;15.45;56.10
17521;BME280;8878;-33.370;-70.552;2024-01-16T07:04:24;91930.41;;;15.41;56.45
17521;BME280;8878;-33.370;-70.552;2024-01-16T07:06:55;91930.84;;;15.43;56.45
17521;BME280;8878;-33.370;-70.552;2024-01-16T07:09:26;91926.16;;;15.40;57.30
17521;BME280;8878;-33.370;-70.552;2024-01-16T07:11:56;91926.88;;;15.32;57.49
17521;BME280;8878;-33.370;-70.552;2024-01-16T07:14:25;91929.66;;;15.27;58.55
17521;BME280;8878;-33.370;-70.552;2024-01-16T07:16:55;91924.91;;;15.24;59.58
17521;BME280;8878;-33.370;-70.552;2024-01-16T07:19:24;91937.56;;;15.05;59.42
17521;BME280;8878;-33.370;-70.552;2024-01-16T07:21:56;91941.69;;;14.97;60.15
17521;BME280;8878;-33.370;-70.552;2024-01-16T07:24:25;91951.31;;;15.07;60.98
17521;BME280;8878;-33.370;-70.552;2024-01-16T07:26:55;91957.63;;;15.11;59.65
17521;BME280;8878;-33.370;-70.552;2024-01-16T07:29:25;91958.19;;;15.08;58.79
17521;BME280;8878;-33.370;-70.552;2024-01-16T07:31:54;91967.25;;;14.93;57.31
17521;BME280;8878;-33.370;-70.552;2024-01-16T07:34:24;91970.91;;;14.83;58.11
17521;BME280;8878;-33.370;-70.552;2024-01-16T07:36:56;91974.56;;;14.74;60.21
17521;BME280;8878;-33.370;-70.552;2024-01-16T07:39:25;91982.91;;;14.81;60.44
17521;BME280;8878;-33.370;-70.552;2024-01-16T07:41:55;91985.56;;;14.95;60.00
17521;BME280;8878;-33.370;-70.552;2024-01-16T07:44:24;91987.53;;;14.75;61.17
17521;BME280;8878;-33.370;-70.552;2024-01-16T07:46:55;91984.88;;;14.75;61.06
17521;BME280;8878;-33.370;-70.552;2024-01-16T07:49:24;91988.91;;;14.59;58.46
17521;BME280;8878;-33.370;-70.552;2024-01-16T07:51:56;92000.59;;;14.72;58.49
17521;BME280;8878;-33.370;-70.552;2024-01-16T07:54:25;92002.97;;;14.60;58.15
17521;BME280;8878;-33.370;-70.552;2024-01-16T07:56:55;91991.97;;;14.80;61.92
17521;BME280;8878;-33.370;-70.552;2024-01-16T07:59:25;91983.81;;;14.90;60.11
17521;BME280;8878;-33.370;-70.552;2024-01-16T08:01:55;91984.09;;;14.88;62.62
17521;BME280;8878;-33.370;-70.552;2024-01-16T08:04:24;91993.63;;;14.89;63.74
17521;BME280;8878;-33.370;-70.552;2024-01-16T08:06:56;91988.44;;;14.84;63.82
17521;BME280;8878;-33.370;-70.552;2024-01-16T08:09:25;91967.75;;;14.81;62.70
17521;BME280;8878;-33.370;-70.552;2024-01-16T08:11:55;91970.91;;;14.83;62.69
17521;BME280;8878;-33.370;-70.552;2024-01-16T08:14:24;91976.63;;;14.77;64.60
17521;BME280;8878;-33.370;-70.552;2024-01-16T08:16:54;91978.16;;;14.64;63.60
17521;BME280;8878;-33.370;-70.552;2024-01-16T08:19:25;91977.09;;;14.52;63.67
17521;BME280;8878;-33.370;-70.552;2024-01-16T08:21:56;91980.75;;;14.37;60.49
17521;BME280;8878;-33.370;-70.552;2024-01-16T08:24:25;91979.19;;;14.36;59.01
17521;BME280;8878;-33.370;-70.552;2024-01-16T08:26:55;91971.22;;;14.36;59.39
17521;BME280;8878;-33.370;-70.552;2024-01-16T08:29:25;91970.44;;;14.35;59.02
17521;BME280;8878;-33.370;-70.552;2024-01-16T08:31:54;91969.16;;;14.33;57.99
17521;BME280;8878;-33.370;-70.552;2024-01-16T08:34:23;91965.88;;;14.41;56.71
17521;BME280;8878;-33.370;-70.552;2024-01-16T08:36:53;91957.25;;;14.49;53.96
17521;BME280;8878;-33.370;-70.552;2024-01-16T08:39:25;91957.47;;;14.34;53.80
17521;BME280;8878;-33.370;-70.552;2024-01-16T08:41:57;91960.31;;;14.24;54.22
17521;BME280;8878;-33.370;-70.552;2024-01-16T08:44:26;91975.06;;;14.30;54.43
17521;BME280;8878;-33.370;-70.552;2024-01-16T08:46:57;91981.38;;;14.34;54.52
17521;BME280;8878;-33.370;-70.552;2024-01-16T08:49:28;91985.09;;;14.33;54.28
17521;BME280;8878;-33.370;-70.552;2024-01-16T08:51:58;91984.06;;;14.47;55.59
17521;BME280;8878;-33.370;-70.552;2024-01-16T08:54:30;91971.28;;;14.49;53.57
17521;BME280;8878;-33.370;-70.552;2024-01-16T08:56:59;91954.47;;;14.40;54.64
17521;BME280;8878;-33.370;-70.552;2024-01-16T08:59:29;91945.78;;;14.35;55.38
17521;BME280;8878;-33.370;-70.552;2024-01-16T09:02:00;91931.06;;;14.42;55.29
17521;BME280;8878;-33.370;-70.552;2024-01-16T09:04:30;91930.31;;;14.42;54.56
17521;BME280;8878;-33.370;-70.552;2024-01-16T09:06:59;91937.66;;;14.45;53.23
17521;BME280;8878;-33.370;-70.552;2024-01-16T09:09:34;91943.72;;;14.32;52.43
17521;BME280;8878;-33.370;-70.552;2024-01-16T09:12:04;91965.88;;;14.08;52.66
17521;BME280;8878;-33.370;-70.552;2024-01-16T09:14:33;91976.28;;;14.05;52.86
17521;BME280;8878;-33.370;-70.552;2024-01-16T09:17:03;91975.53;;;14.18;52.25
17521;BME280;8878;-33.370;-70.552;2024-01-16T09:19:32;91979.75;;;14.19;52.87
17521;BME280;8878;-33.370;-70.552;2024-01-16T09:22:01;91979.53;;;14.16;53.83
17521;BME280;8878;-33.370;-70.552;2024-01-16T09:24:33;91980.41;;;14.11;57.25
17521;BME280;8878;-33.370;-70.552;2024-01-16T09:27:03;91993.50;;;14.21;57.32
17521;BME280;8878;-33.370;-70.552;2024-01-16T09:29:33;92006.06;;;13.83;58.66
17521;BME280;8878;-33.370;-70.552;2024-01-16T09:32:03;92021.13;;;13.69;59.62
17521;BME280;8878;-33.370;-70.552;2024-01-16T09:34:32;92023.41;;;13.76;60.19
17521;BME280;8878;-33.370;-70.552;2024-01-16T09:37:02;92019.53;;;13.87;60.92
17521;BME280;8878;-33.370;-70.552;2024-01-16T09:39:33;92018.97;;;13.90;61.90
17521;BME280;8878;-33.370;-70.552;2024-01-16T09:42:05;92035.16;;;13.88;63.69
17521;BME280;8878;-33.370;-70.552;2024-01-16T09:44:35;92045.91;;;13.97;64.23
17521;BME280;8878;-33.370;-70.552;2024-01-16T09:47:05;92036.50;;;14.04;64.84
17521;BME280;8878;-33.370;-70.552;2024-01-16T09:49:36;92022.59;;;14.13;64.42
17521;BME280;8878;-33.370;-70.552;2024-01-16T09:52:09;92017.66;;;14.06;65.01
17521;BME280;8878;-33.370;-70.552;2024-01-16T09:54:40;92017.78;;;13.96;67.58
17521;BME280;8878;-33.370;-70.552;2024-01-16T09:57:13;92019.00;;;14.03;66.79
17521;BME280;8878;-33.370;-70.552;2024-01-16T09:59:44;92024.16;;;13.95;68.40
17521;BME280;8878;-33.370;-70.552;2024-01-16T10:02:15;92024.09;;;14.00;66.83
17521;BME280;8878;-33.370;-70.552;2024-01-16T10:04:45;92023.19;;;14.23;66.32
17521;BME280;8878;-33.370;-70.552;2024-01-16T10:07:16;92026.47;;;14.34;65.24
17521;BME280;8878;-33.370;-70.552;2024-01-16T10:09:47;92044.84;;;14.30;65.80
17521;BME280;8878;-33.370;-70.552;2024-01-16T10:12:17;92034.69;;;14.00;70.75
17521;BME280;8878;-33.370;-70.552;2024-01-16T10:14:47;92040.78;;;14.00;69.15
17521;BME280;8878;-33.370;-70.552;2024-01-16T10:17:18;92034.69;;;14.00;70.11
17521;BME280;8878;-33.370;-70.552;2024-01-16T10:19:51;92036.19;;;14.25;67.28
17521;BME280;8878;-33.370;-70.552;2024-01-16T10:22:22;92041.06;;;14.50;71.47
17521;BME280;8878;-33.370;-70.552;2024-01-16T10:25:04;92048.19;;;14.36;70.06
17521;BME280;8878;-33.370;-70.552;2024-01-16T10:27:34;92041.78;;;14.42;71.26
17521;BME280;8878;-33.370;-70.552;2024-01-16T10:30:05;92039.53;;;14.49;73.65
17521;BME280;8878;-33.370;-70.552;2024-01-16T10:32:35;92047.09;;;14.42;71.76
17521;BME280;8878;-33.370;-70.552;2024-01-16T10:35:06;92044.25;;;14.33;71.99
17521;BME280;8878;-33.370;-70.552;2024-01-16T10:37:43;92059.91;;;14.35;71.77
17521;BME280;8878;-33.370;-70.552;2024-01-16T10:40:17;92064.06;;;14.41;68.14
17521;BME280;8878;-33.370;-70.552;2024-01-16T10:42:57;92058.88;;;14.49;67.24
17521;BME280;8878;-33.370;-70.552;2024-01-16T10:45:27;92062.03;;;14.52;66.33
17521;BME280;8878;-33.370;-70.552;2024-01-16T10:48:07;92072.94;;;14.50;66.45
17521;BME280;8878;-33.370;-70.552;2024-01-16T10:50:38;92072.69;;;14.65;65.28
17521;BME280;8878;-33.370;-70.552;2024-01-16T10:53:08;92079.81;;;14.83;63.48
17521;BME280;8878;-33.370;-70.552;2024-01-16T10:55:49;92077.19;;;14.97;63.73
17521;BME280;8878;-33.370;-70.552;2024-01-16T10:58:21;92084.06;;;15.12;61.35
17521;BME280;8878;-33.370;-70.552;2024-01-16T11:00:53;92089.38;;;15.12;60.09
17521;BME280;8878;-33.370;-70.552;2024-01-16T11:03:28;92094.19;;;14.96;61.30
17521;BME280;8878;-33.370;-70.552;2024-01-16T11:05:58;92092.31;;;14.97;62.44
17521;BME280;8878;-33.370;-70.552;2024-01-16T11:08:30;92099.56;;;14.77;65.61
17521;BME280;8878;-33.370;-70.552;2024-01-16T11:11:03;92102.63;;;14.84;66.63
17521;BME280;8878;-33.370;-70.552;2024-01-16T11:13:35;92104.44;;;15.03;65.37
17521;BME280;8878;-33.370;-70.552;2024-01-16T11:16:05;92108.97;;;15.16;64.88
17521;BME280;8878;-33.370;-70.552;2024-01-16T11:18:35;92109.84;;;15.11;64.90
17521;BME280;8878;-33.370;-70.552;2024-01-16T11:21:07;92110.22;;;14.91;67.56
17521;BME280;8878;-33.370;-70.552;2024-01-16T11:23:37;92111.94;;;14.68;69.51
17521;BME280;8878;-33.370;-70.552;2024-01-16T11:26:29;92125.13;;;14.73;70.36
17521;BME280;8878;-33.370;-70.552;2024-01-16T11:29:00;92126.69;;;14.74;70.64
17521;BME280;8878;-33.370;-70.552;2024-01-16T11:31:31;92137.22;;;14.79;71.45
17521;BME280;8878;-33.370;-70.552;2024-01-16T11:34:01;92142.53;;;14.79;72.43
17521;BME280;8878;-33.370;-70.552;2024-01-16T11:36:49;92135.53;;;15.02;72.20
17521;BME280;8878;-33.370;-70.552;2024-01-16T11:39:21;92139.69;;;15.22;67.92
17521;BME280;8878;-33.370;-70.552;2024-01-16T11:41:54;92142.44;;;15.31;65.41
17521;BME280;8878;-33.370;-70.552;2024-01-16T11:44:43;92138.31;;;15.24;63.94
17521;BME280;8878;-33.370;-70.552;2024-01-16T11:47:17;92137.63;;;15.19;64.57
17521;BME280;8878;-33.370;-70.552;2024-01-16T11:49:47;92141.06;;;15.19;64.77
17521;BME280;8878;-33.370;-70.552;2024-01-16T11:52:40;92139.50;;;15.32;64.02
17521;BME280;8878;-33.370;-70.552;2024-01-16T11:55:26;92138.13;;;15.48;64.01
17521;BME280;8878;-33.370;-70.552;2024-01-16T11:58:13;92150.66;;;15.61;63.66
17521;BME280;8878;-33.370;-70.552;2024-01-16T12:00:50;92148.50;;;15.77;60.94
17521;BME280;8878;-33.370;-70.552;2024-01-16T12:03:21;92146.31;;;15.65;60.19
17521;BME280;8878;-33.370;-70.552;2024-01-16T12:05:56;92150.66;;;15.75;60.82
17521;BME280;8878;-33.370;-70.552;2024-01-16T12:08:25;92144.25;;;15.76;60.60
17521;BME280;8878;-33.370;-70.552;2024-01-16T12:10:55;92147.88;;;15.94;60.52
17521;BME280;8878;-33.370;-70.552;2024-01-16T12:13:26;92144.06;;;16.22;59.98
17521;BME280;8878;-33.370;-70.552;2024-01-16T12:16:00;92140.97;;;16.42;58.42
17521;BME280;8878;-33.370;-70.552;2024-01-16T12:18:30;92141.09;;;16.60;57.29
17521;BME280;8878;-33.370;-70.552;2024-01-16T12:21:09;92134.38;;;16.76;56.71
17521;BME280;8878;-33.370;-70.552;2024-01-16T12:23:39;92128.69;;;16.69;55.35
17521;BME280;8878;-33.370;-70.552;2024-01-16T12:26:10;92128.19;;;16.89;53.02
17521;BME280;8878;-33.370;-70.552;2024-01-16T12:28:53;92126.56;;;17.10;52.33
17521;BME280;8878;-33.370;-70.552;2024-01-16T12:31:23;92121.44;;;17.22;48.92
17521;BME280;8878;-33.370;-70.552;2024-01-16T12:33:52;92114.09;;;17.28;45.42
17521;BME280;8878;-33.370;-70.552;2024-01-16T12:36:22;92117.69;;;17.23;44.91
17521;BME280;8878;-33.370;-70.552;2024-01-16T12:38:55;92126.19;;;17.34;44.48
17521;BME280;8878;-33.370;-70.552;2024-01-16T12:41:25;92116.31;;;17.35;43.52
17521;BME280;8878;-33.370;-70.552;2024-01-16T12:43:57;92116.38;;;17.43;48.11
17521;BME280;8878;-33.370;-70.552;2024-01-16T12:46:26;92104.06;;;17.65;48.10
17521;BME280;8878;-33.370;-70.552;2024-01-16T12:49:01;92102.88;;;17.79;48.06
17521;BME280;8878;-33.370;-70.552;2024-01-16T12:51:32;92103.63;;;17.71;47.96
17521;BME280;8878;-33.370;-70.552;2024-01-16T12:54:15;92091.06;;;17.72;47.44
17521;BME280;8878;-33.370;-70.552;2024-01-16T12:56:45;92086.53;;;17.72;45.87
17521;BME280;8878;-33.370;-70.552;2024-01-16T12:59:16;92074.94;;;17.85;48.29